»·PEaware :: PAIN20 KFMN-KABQ

PAIN20 :: KFMN-KABQ

FLIGHT INFORMATION

Flight Status: Arrived
Operator: Unknown
More flights by this operator :: More flights under this callsign
Pilot: C. V. (21273)
Aircraft: BEECH AIRCRAFT T-6A TEXAN
(TEX2)
More flights by this aircraft type
Origin: KFMN Four Corners Regl
United States
Destination: KABQ Albuquerque Intl Sunport
United States
More flights between these airports :: More routes between these airports
Route: +DRO RSK V187 ABQ
File this flight plan on PilotEdge
Remarks:
Altitude:
(Current/Filed)
13,000ft
Speed:
(Current/Filed)
220kts
Departed: 12-Jun-20 10:57 AM
Arrived: 12-Jun-20 12:24 PM
Distance/Time
Traveled:
129nm/1:26
Distance/Time
To Go:
Arrived

Flight Plot

Page will automatically refresh every two minutes.

Flight plan parsing failed; only flown route is shown


Map Options




Map Legend


Flown Route
Filed Route
Departure Airport
Arrival Airport
Navaid (VOR, NDB)
Fix

Horizontal Profiles

Position Reports

Time Latitude Longitude Heading Altitude Ground
Speed
12-Jun-20 10:55 36.445990 -107.506911 330 14614ft 281kts
12-Jun-20 10:56 36.512835 -107.556190 330 12515ft 274kts
12-Jun-20 10:57 36.579402 -107.603070 332 10258ft 279kts
12-Jun-20 10:58 36.643396 -107.646544 331 9584ft 246kts
12-Jun-20 10:59 36.680242 -107.710357 290 9230ft 239kts
12-Jun-20 11:00 36.698705 -107.787022 286 8969ft 217kts
12-Jun-20 11:01 36.717394 -107.856456 290 9007ft 203kts
12-Jun-20 11:02 36.734987 -107.916972 286 8882ft 163kts
12-Jun-20 11:03 36.743710 -107.970918 271 8694ft 167kts
12-Jun-20 11:04 36.746291 -108.026081 266 7777ft 145kts
12-Jun-20 11:05 36.744685 -108.072385 266 7193ft 116kts
12-Jun-20 11:06 36.743316 -108.113699 269 7150ft 120kts
12-Jun-20 11:07 36.743008 -108.153539 272 6563ft 111kts
12-Jun-20 11:08 36.742325 -108.192181 267 5944ft 111kts
12-Jun-20 11:09 36.741445 -108.226211 268 5507ft 52kts
12-Jun-20 11:10 36.741179 -108.236232 268 5507ft 37kts
12-Jun-20 11:11 36.740393 -108.236029 88 5507ft 7kts
12-Jun-20 11:12 36.740502 -108.230585 87 5507ft 21kts
12-Jun-20 11:13 36.739860 -108.228132 271 5507ft 0kts
12-Jun-20 11:14 36.739860 -108.228132 271 5507ft 0kts
12-Jun-20 11:15 36.739860 -108.228132 271 5507ft 0kts
12-Jun-20 11:16 36.739860 -108.228132 271 5507ft 0kts
12-Jun-20 11:17 36.739860 -108.228132 271 5507ft 0kts
12-Jun-20 11:18 36.739860 -108.228132 271 5507ft 0kts
12-Jun-20 11:19 36.739860 -108.228132 271 5507ft 0kts
12-Jun-20 11:20 36.739860 -108.228132 271 5507ft 0kts
12-Jun-20 11:21 36.739860 -108.228132 271 5507ft 0kts
12-Jun-20 11:22 36.739860 -108.228132 271 5507ft 0kts
12-Jun-20 11:23 36.739860 -108.228132 271 5507ft 0kts
12-Jun-20 11:24 36.739860 -108.228132 271 5507ft 0kts
12-Jun-20 11:25 36.739860 -108.228132 271 5507ft 0kts
12-Jun-20 11:26 36.739860 -108.228132 271 5507ft 0kts
12-Jun-20 11:27 36.739860 -108.228132 271 5507ft 0kts
12-Jun-20 11:28 36.739860 -108.228132 271 5507ft 0kts
12-Jun-20 11:29 36.739860 -108.228132 271 5507ft 0kts
12-Jun-20 11:30 36.739860 -108.228132 271 5507ft 0kts
12-Jun-20 11:31 36.739860 -108.228132 271 5507ft 0kts
12-Jun-20 11:32 36.739860 -108.228132 271 5507ft 0kts
12-Jun-20 11:33 36.739860 -108.228132 271 5507ft 0kts
12-Jun-20 11:34 36.739860 -108.228132 271 5507ft 0kts
12-Jun-20 11:35 36.739860 -108.228132 271 5507ft 0kts
12-Jun-20 11:36 36.739860 -108.228132 271 5507ft 0kts
12-Jun-20 11:37 36.739860 -108.228132 271 5507ft 0kts
12-Jun-20 11:38 36.739860 -108.228132 271 5507ft 0kts
12-Jun-20 11:39 36.739860 -108.228132 271 5507ft 0kts
12-Jun-20 11:40 36.739860 -108.228132 271 5507ft 0kts
12-Jun-20 11:41 36.739860 -108.228132 271 5507ft 0kts
12-Jun-20 11:42 36.740086 -108.229788 343 5507ft 7kts
12-Jun-20 11:43 36.739575 -108.233527 245 5507ft 21kts
12-Jun-20 11:44 36.736990 -108.240349 246 5507ft 10kts
12-Jun-20 11:45 36.736873 -108.240734 265 5507ft 0kts
12-Jun-20 11:46 36.736873 -108.240734 265 5507ft 0kts
12-Jun-20 11:47 36.737362 -108.241247 21 5507ft 6kts
12-Jun-20 11:48 36.750910 -108.210003 41 6587ft 170kts
12-Jun-20 11:49 36.785897 -108.167343 44 9881ft 187kts
12-Jun-20 11:50 36.797436 -108.117120 151 11890ft 202kts
12-Jun-20 11:51 36.739773 -108.093636 166 12861ft 246kts
12-Jun-20 11:52 36.676591 -108.057446 142 12985ft 260kts
12-Jun-20 11:53 36.617151 -108.005948 145 12735ft 255kts
12-Jun-20 11:54 36.561645 -107.952025 141 12724ft 259kts
12-Jun-20 11:55 36.505005 -107.898645 147 12678ft 260kts
12-Jun-20 11:56 36.446485 -107.847293 149 12676ft 258kts
12-Jun-20 11:57 36.383550 -107.804974 144 12796ft 268kts
12-Jun-20 11:58 36.321534 -107.747670 146 12760ft 282kts
12-Jun-20 11:59 36.254993 -107.695387 147 12736ft 286kts
12-Jun-20 12:00 36.186585 -107.647090 149 12729ft 283kts
12-Jun-20 12:01 36.115934 -107.604623 156 12658ft 284kts
12-Jun-20 12:02 36.048863 -107.555543 147 12832ft 278kts
12-Jun-20 12:03 35.983283 -107.502450 146 12735ft 281kts
12-Jun-20 12:04 35.918786 -107.448752 143 12791ft 282kts
12-Jun-20 12:05 35.846774 -107.412848 146 12761ft 281kts
12-Jun-20 12:06 35.782213 -107.358687 148 12727ft 284kts
12-Jun-20 12:07 35.716527 -107.305848 145 12883ft 277kts
12-Jun-20 12:08 35.653210 -107.248669 145 12628ft 285kts
12-Jun-20 12:09 35.586825 -107.197783 160 12812ft 277kts
12-Jun-20 12:10 35.513637 -107.163957 155 12748ft 284kts
12-Jun-20 12:11 35.442898 -107.123081 151 12983ft 279kts
12-Jun-20 12:12 35.375916 -107.072086 144 12848ft 283kts
12-Jun-20 12:13 35.311531 -107.017054 144 12760ft 289kts
12-Jun-20 12:14 35.236656 -106.980437 172 11019ft 290kts
12-Jun-20 12:15 35.162428 -106.968535 172 9546ft 257kts
12-Jun-20 12:16 35.095044 -106.956417 168 8357ft 235kts
12-Jun-20 12:17 35.053560 -106.905630 102 7174ft 223kts
12-Jun-20 12:18 35.047222 -106.837425 70 7152ft 202kts
12-Jun-20 12:19 35.046903 -106.770903 92 7121ft 200kts
12-Jun-20 12:20 35.045761 -106.704361 91 6767ft 186kts
12-Jun-20 12:22 35.044665 -106.654452 89 5948ft 135kts
12-Jun-20 12:23 35.044289 -106.608047 90 5316ft 109kts
12-Jun-20 12:24 35.045104 -106.596406 193 5322ft 0kts
12-Jun-20 12:25 35.045055 -106.596441 230 5322ft 0kts
12-Jun-20 12:26 35.045054 -106.596442 231 5322ft 0kts
12-Jun-20 12:27 35.044359 -106.598040 208 5319ft 0kts

Navigation Log

Ident Type
Flight plan parsing failed, navigation log unavailable